Observation data for Graham on 11/19/2019      Previous  Date       Current Mesonet Observations  Soil Data  Daily Summary Page  Observations in Plain Language
KGHS 190600Z 12003KT 15/00 A2997 RMK A01 T014700-0  RH  037%=      5-min Rain = 0
KGHS 190605Z 11004KT 15/M00 A2996 RMK A01 T01501001  RH  036%=      5-min Rain = 0
KGHS 190610Z 13005KT 15/M00 A2996 RMK A01 T01541001  RH  035%=      5-min Rain = 0
KGHS 190615Z 16004KT 15/00 A2997 RMK A01 T01510001  RH  036%=      5-min Rain = 0
KGHS 190620Z 16004KT 15/00 A2996 RMK A01 T014500-0  RH  038%=      5-min Rain = 0
KGHS 190625Z 15004KT 15/M00 A2996 RMK A01 T01481001  RH  037%=      5-min Rain = 0
KGHS 190630Z 15004KT 15/00 A2997 RMK A01 T014900-0  RH  037%=      5-min Rain = 0
KGHS 190635Z 16004KT 15/00 A2997 RMK A01 T014800-0  RH  037%=      5-min Rain = 0
KGHS 190640Z 18004KT 15/00 A2997 RMK A01 T01480000  RH  037%=      5-min Rain = 0
KGHS 190645Z 17004KT 15/00 A2997 RMK A01 T01450002  RH  038%=      5-min Rain = 0
KGHS 190650Z 15004KT 15/00 A2997 RMK A01 T01450002  RH  038%=      5-min Rain = 0
KGHS 190655Z 15004KT 14/00 A2997 RMK A01 T01440002  RH  038%=      5-min Rain = 0
KGHS 190700Z 16004KT 14/00 A2997 RMK A01 T01420003  RH  039%=      5-min Rain = 0
KGHS 190705Z 16004KT 14/00 A2997 RMK A01 T01420003  RH  039%=      5-min Rain = 0
KGHS 190710Z 15004KT 14/00 A2997 RMK A01 T01420004  RH  039%=      5-min Rain = 0
KGHS 190715Z 15004KT 14/01 A2997 RMK A01 T01410005  RH  040%=      5-min Rain = 0
KGHS 190720Z 16003KT 14/01 A2997 RMK A01 T01400006  RH  040%=      5-min Rain = 0
KGHS 190725Z 15003KT 14/01 A2997 RMK A01 T01390005  RH  041%=      5-min Rain = 0
KGHS 190730Z 17003KT 14/01 A2997 RMK A01 T01370006  RH  041%=      5-min Rain = 0
KGHS 190735Z 17002KT 14/01 A2997 RMK A01 T01380006  RH  041%=      5-min Rain = 0
KGHS 190740Z 15002KT 14/01 A2997 RMK A01 T01380007  RH  041%=      5-min Rain = 0
KGHS 190745Z 16002KT 14/01 A2997 RMK A01 T01390008  RH  041%=      5-min Rain = 0
KGHS 190750Z 16002KT 14/01 A2997 RMK A01 T01380007  RH  041%=      5-min Rain = 0
KGHS 190755Z 14001KT 14/01 A2997 RMK A01 T01360007  RH  042%=      5-min Rain = 0
KGHS 190800Z 13001KT 14/01 A2997 RMK A01 T01360007  RH  042%=      5-min Rain = 0
KGHS 190805Z 10000KT 13/01 A2997 RMK A01 T01340007  RH  042%=      5-min Rain = 0
KGHS 190810Z 17001KT 13/01 A2997 RMK A01 T01260008  RH  045%=      5-min Rain = 0
KGHS 190815Z 20001KT 12/01 A2997 RMK A01 T01180009  RH  048%=      5-min Rain = 0
KGHS 190820Z 24002KT 11/01 A2997 RMK A01 T01120009  RH  050%=      5-min Rain = 0
KGHS 190825Z 25002KT 11/01 A2997 RMK A01 T01100010  RH  051%=      5-min Rain = 0
KGHS 190830Z 23003KT 11/01 A2997 RMK A01 T01110010  RH  050%=      5-min Rain = 0
KGHS 190835Z 23002KT 11/01 A2997 RMK A01 T01100010  RH  051%=      5-min Rain = 0
KGHS 190840Z 20002KT 11/01 A2997 RMK A01 T01140010  RH  050%=      5-min Rain = 0
KGHS 190845Z 20003KT 12/01 A2997 RMK A01 T01180010  RH  048%=      5-min Rain = 0
KGHS 190850Z 18003KT 12/01 A2997 RMK A01 T01210010  RH  047%=      5-min Rain = 0
KGHS 190855Z 19004KT 13/01 A2997 RMK A01 T01260009  RH  045%=      5-min Rain = 0
KGHS 190900Z 19003KT 13/01 A2997 RMK A01 T01280008  RH  045%=      5-min Rain = 0
KGHS 190905Z 18003KT 13/01 A2997 RMK A01 T01290008  RH  044%=      5-min Rain = 0
KGHS 190910Z 18003KT 13/01 A2997 RMK A01 T01290008  RH  044%=      5-min Rain = 0
KGHS 190915Z 18003KT 13/01 A2997 RMK A01 T01290008  RH  044%=      5-min Rain = 0
KGHS 190920Z 20003KT 13/01 A2997 RMK A01 T01270008  RH  045%=      5-min Rain = 0
KGHS 190925Z 19003KT 12/01 A2996 RMK A01 T01210009  RH  047%=      5-min Rain = 0
KGHS 190930Z 20003KT 12/01 A2996 RMK A01 T01170009  RH  048%=      5-min Rain = 0
KGHS 190935Z 20002KT 12/01 A2996 RMK A01 T01160008  RH  048%=      5-min Rain = 0
KGHS 190940Z 19002KT 12/01 A2996 RMK A01 T01160009  RH  048%=      5-min Rain = 0
KGHS 190945Z 19001KT 12/01 A2996 RMK A01 T01170008  RH  048%=      5-min Rain = 0
KGHS 190950Z 16001KT 12/01 A2996 RMK A01 T01180009  RH  048%=      5-min Rain = 0
KGHS 190955Z 17002KT 12/01 A2996 RMK A01 T01190010  RH  048%=      5-min Rain = 0
KGHS 191000Z 18002KT 12/01 A2996 RMK A01 T01200009  RH  047%=      5-min Rain = 0
KGHS 191005Z 19001KT 12/01 A2996 RMK A01 T01180009  RH  048%=      5-min Rain = 0
KGHS 191010Z 19001KT 12/01 A2996 RMK A01 T01180009  RH  048%=      5-min Rain = 0
KGHS 191015Z 20002KT 12/01 A2996 RMK A01 T01180009  RH  048%=      5-min Rain = 0
KGHS 191020Z 21001KT 12/01 A2996 RMK A01 T01180009  RH  048%=      5-min Rain = 0
KGHS 191025Z 21000KT 11/01 A2996 RMK A01 T01110010  RH  050%=      5-min Rain = 0
KGHS 191030Z 00000KT 10/01 A2996 RMK A01 T01020010  RH  054%=      5-min Rain = 0
KGHS 191035Z 00000KT 10/01 A2996 RMK A01 T00950011  RH  056%=      5-min Rain = 0
KGHS 191040Z 00000KT 09/01 A2996 RMK A01 T00900011  RH  058%=      5-min Rain = 0
KGHS 191045Z 33002KT 09/01 A2996 RMK A01 T00870011  RH  060%=      5-min Rain = 0
KGHS 191050Z 33002KT 09/01 A2996 RMK A01 T00850011  RH  060%=      5-min Rain = 0
KGHS 191055Z 31002KT 09/01 A2996 RMK A01 T00850011  RH  060%=      5-min Rain = 0
KGHS 191100Z 31002KT 09/01 A2996 RMK A01 T00870010  RH  059%=      5-min Rain = 0
KGHS 191105Z 33003KT 09/01 A2996 RMK A01 T00890010  RH  059%=      5-min Rain = 0
KGHS 191110Z 32003KT 09/01 A2996 RMK A01 T00900010  RH  058%=      5-min Rain = 0
KGHS 191115Z 32005KT 08/01 A2996 RMK A01 T00830011  RH  061%=      5-min Rain = 0
KGHS 191120Z 32006KT 07/01 A2996 RMK A01 T00730012  RH  066%=      5-min Rain = 0
KGHS 191125Z 32007KT 07/01 A2995 RMK A01 T00670012  RH  069%=      5-min Rain = 0
KGHS 191130Z 32006KT 07/01 A2995 RMK A01 T00660012  RH  070%=      5-min Rain = 0
KGHS 191135Z 32006KT 07/01 A2995 RMK A01 T00660012  RH  069%=      5-min Rain = 0
KGHS 191140Z 32008KT 07/01 A2995 RMK A01 T00660012  RH  069%=      5-min Rain = 0
KGHS 191145Z 31009KT 06/01 A2995 RMK A01 T00630011  RH  071%=      5-min Rain = 0
KGHS 191150Z 32009KT 06/01 A2995 RMK A01 T00630012  RH  071%=      5-min Rain = 0
KGHS 191155Z 32009KT 06/01 A2995 RMK A01 T00640011  RH  070%=      5-min Rain = 0
KGHS 191200Z 33009KT 06/01 A2995 RMK A01 T00640011  RH  070%=      5-min Rain = 0
KGHS 191205Z 33009KT 07/01 A2995 RMK A01 T00650011  RH  070%=      5-min Rain = 0
KGHS 191210Z 34010KT 07/01 A2995 RMK A01 T00670011  RH  068%=      5-min Rain = 0
KGHS 191215Z 34010KT 07/01 A2995 RMK A01 T00670011  RH  068%=      5-min Rain = 0
KGHS 191220Z 34009KT 07/01 A2995 RMK A01 T00660011  RH  069%=      5-min Rain = 0
KGHS 191225Z 34010KT 07/01 A2995 RMK A01 T00650011  RH  069%=      5-min Rain = 0
KGHS 191230Z 34011KT 06/01 A2995 RMK A01 T00620010  RH  070%=      5-min Rain = 0
KGHS 191235Z 34010KT 06/01 A2995 RMK A01 T00610011  RH  071%=      5-min Rain = 0
KGHS 191240Z 34008KT 06/01 A2995 RMK A01 T00630010  RH  070%=      5-min Rain = 0
KGHS 191245Z 34008KT 07/01 A2995 RMK A01 T00650010  RH  069%=      5-min Rain = 0
KGHS 191250Z 34008KT 06/01 A2996 RMK A01 T00640011  RH  070%=      5-min Rain = 0
KGHS 191255Z 34007KT 06/01 A2996 RMK A01 T00640011  RH  070%=      5-min Rain = 0
KGHS 191300Z 35003KT 06/01 A2996 RMK A01 T00640010  RH  069%=      5-min Rain = 0
KGHS 191305Z 00004KT 06/01 A2996 RMK A01 T00640010  RH  069%=      5-min Rain = 0
KGHS 191310Z 01004KT 06/01 A2996 RMK A01 T00620010  RH  070%=      5-min Rain = 0
KGHS 191315Z 06002KT 06/01 A2996 RMK A01 T00610010  RH  071%=      5-min Rain = 0
KGHS 191320Z 17002KT 06/01 A2997 RMK A01 T00610011  RH  071%=      5-min Rain = 0
KGHS 191325Z 15001KT 06/01 A2997 RMK A01 T00600011  RH  072%=      5-min Rain = 0
KGHS 191330Z 09001KT 06/01 A2997 RMK A01 T00620011  RH  071%=      5-min Rain = 0
KGHS 191335Z 12001KT 06/01 A2997 RMK A01 T00640011  RH  070%=      5-min Rain = 0
KGHS 191340Z 20002KT 07/01 A2997 RMK A01 T00650010  RH  069%=      5-min Rain = 0
KGHS 191345Z 23002KT 07/01 A2997 RMK A01 T00650011  RH  069%=      5-min Rain = 0
KGHS 191350Z 20002KT 07/01 A2997 RMK A01 T00680010  RH  068%=      5-min Rain = 0
KGHS 191355Z 20002KT 07/01 A2997 RMK A01 T00700011  RH  067%=      5-min Rain = 0
KGHS 191400Z 21002KT 07/01 A2997 RMK A01 T00670013  RH  069%=      5-min Rain = 0
KGHS 191405Z 19003KT 06/02 A2997 RMK A01 T00630015  RH  072%=      5-min Rain = 0
KGHS 191410Z 20003KT 06/02 A2997 RMK A01 T00610016  RH  074%=      5-min Rain = 0
KGHS 191415Z 18003KT 06/02 A2997 RMK A01 T00620019  RH  075%=      5-min Rain = 0
KGHS 191420Z 19002KT 07/02 A2997 RMK A01 T00730022  RH  071%=      5-min Rain = 0
KGHS 191425Z 20001KT 08/03 A2997 RMK A01 T00830028  RH  069%=      5-min Rain = 0
KGHS 191430Z 24001KT 09/03 A2997 RMK A01 T00870031  RH  069%=      5-min Rain = 0
KGHS 191435Z 23002KT 09/03 A2997 RMK A01 T00850027  RH  068%=      5-min Rain = 0
KGHS 191440Z 22002KT 08/03 A2997 RMK A01 T00840027  RH  068%=      5-min Rain = 0
KGHS 191445Z 18001KT 09/03 A2997 RMK A01 T00890030  RH  068%=      5-min Rain = 0
KGHS 191450Z 16002KT 10/03 A2997 RMK A01 T01000031  RH  063%=      5-min Rain = 0
KGHS 191455Z 20003KT 11/03 A2997 RMK A01 T01090031  RH  059%=      5-min Rain = 0
KGHS 191500Z 20003KT 11/03 A2997 RMK A01 T01120030  RH  058%=      5-min Rain = 0
KGHS 191505Z 21003KT 11/02 A2997 RMK A01 T01140023  RH  055%=      5-min Rain = 0
KGHS 191510Z 21004KT 11/02 A2997 RMK A01 T01140022  RH  054%=      5-min Rain = 0
KGHS 191515Z 21004KT 12/03 A2997 RMK A01 T01150025  RH  055%=      5-min Rain = 0
KGHS 191520Z 22005KT 12/03 A2997 RMK A01 T01180029  RH  055%=      5-min Rain = 0
KGHS 191525Z 23004KT 12/03 A2998 RMK A01 T01200032  RH  056%=      5-min Rain = 0
KGHS 191530Z 23003KT 12/04 A2998 RMK A01 T01220035  RH  056%=      5-min Rain = 0
KGHS 191535Z 21005KT 13/04 A2998 RMK A01 T01250036  RH  056%=      5-min Rain = 0
KGHS 191540Z 22004KT 13/04 A2998 RMK A01 T01290038  RH  055%=      5-min Rain = 0
KGHS 191545Z 22005KT 13/04 A2998 RMK A01 T01340038  RH  053%=      5-min Rain = 0
KGHS 191550Z 22006KT 14/04 A2998 RMK A01 T01380040  RH  052%=      5-min Rain = 0
KGHS 191555Z 22006KT 14/04 A2998 RMK A01 T01410041  RH  052%=      5-min Rain = 0
KGHS 191600Z 22006KT 14/04 A2998 RMK A01 T01440043  RH  052%=      5-min Rain = 0
KGHS 191605Z 22006KT 15/05 A2998 RMK A01 T01490046  RH  051%=      5-min Rain = 0
KGHS 191610Z 23005KT 15/05 A2998 RMK A01 T01540048  RH  050%=      5-min Rain = 0
KGHS 191615Z 22005KT 16/05 A2998 RMK A01 T01590048  RH  049%=      5-min Rain = 0
KGHS 191620Z 20006KT 16/05 A2998 RMK A01 T01620049  RH  048%=      5-min Rain = 0
KGHS 191625Z 21007KT 17/05 A2997 RMK A01 T01690046  RH  045%=      5-min Rain = 0
KGHS 191630Z 20008KT 17/05 A2997 RMK A01 T01730046  RH  044%=      5-min Rain = 0
KGHS 191635Z 19007KT 18/05 A2997 RMK A01 T01770047  RH  043%=      5-min Rain = 0
KGHS 191640Z 19009KT 18/04 A2997 RMK A01 T01810043  RH  041%=      5-min Rain = 0
KGHS 191645Z 20010KT 18/04 A2997 RMK A01 T01820041  RH  040%=      5-min Rain = 0
KGHS 191650Z 20009KT 18/04 A2996 RMK A01 T01820040  RH  039%=      5-min Rain = 0
KGHS 191655Z 20009G14KT 19/04 A2996 RMK A01 T01860041  RH  039%=      5-min Rain = 0
KGHS 191700Z 20008KT 19/04 A2996 RMK A01 T01880040  RH  038%=      5-min Rain = 0
KGHS 191705Z 19008G13KT 19/04 A2996 RMK A01 T01910039  RH  037%=      5-min Rain = 0
KGHS 191710Z 19010KT 19/04 A2996 RMK A01 T01920035  RH  036%=      5-min Rain = 0
KGHS 191715Z 20009KT 20/04 A2996 RMK A01 T01950036  RH  036%=      5-min Rain = 0
KGHS 191720Z 20008KT 20/04 A2996 RMK A01 T01960036  RH  035%=      5-min Rain = 0
KGHS 191725Z 19008KT 20/04 A2995 RMK A01 T01980036  RH  035%=      5-min Rain = 0
KGHS 191730Z 21008KT 20/04 A2995 RMK A01 T02000037  RH  035%=      5-min Rain = 0
KGHS 191735Z 18008KT 20/04 A2995 RMK A01 T02030039  RH  034%=      5-min Rain = 0
KGHS 191740Z 19007KT 21/04 A2995 RMK A01 T02090040  RH  033%=      5-min Rain = 0
KGHS 191745Z 20006KT 21/04 A2994 RMK A01 T02110041  RH  033%=      5-min Rain = 0
KGHS 191750Z 18008G14KT 22/04 A2994 RMK A01 T02160038  RH  032%=      5-min Rain = 0
KGHS 191755Z 18012KT 22/03 A2994 RMK A01 T02200028  RH  029%=      5-min Rain = 0
KGHS 191800Z 18012KT 22/03 A2994 RMK A01 T02220028  RH  028%=      5-min Rain = 0
KGHS 191805Z 18013KT 22/03 A2993 RMK A01 T02230026  RH  028%=      5-min Rain = 0
KGHS 191810Z 18014KT 22/02 A2993 RMK A01 T02220023  RH  027%=      5-min Rain = 0
KGHS 191815Z 19012G18KT 22/03 A2993 RMK A01 T02240026  RH  028%=      5-min Rain = 0
KGHS 191820Z 18012G17KT 23/03 A2992 RMK A01 T02270028  RH  028%=      5-min Rain = 0
KGHS 191825Z 18012G17KT 23/03 A2992 RMK A01 T02290029  RH  027%=      5-min Rain = 0
KGHS 191830Z 19016G21KT 23/02 A2992 RMK A01 T02290021  RH  026%=      5-min Rain = 0
KGHS 191835Z 18014G19KT 23/02 A2991 RMK A01 T02300023  RH  026%=      5-min Rain = 0
KGHS 191840Z 18017G22KT 23/02 A299 RMK A01 T02290015  RH  025%=      5-min Rain = 0
KGHS 191845Z 18015G21KT 23/02 A299 RMK A01 T02300017  RH  025%=      5-min Rain = 0
KGHS 191850Z 19015G20KT 23/02 A299 RMK A01 T02300018  RH  025%=      5-min Rain = 0
KGHS 191855Z 19018G24KT 23/01 A299 RMK A01 T02310014  RH  024%=      5-min Rain = 0
KGHS 191900Z 18017G23KT 23/02 A2989 RMK A01 T02310017  RH  025%=      5-min Rain = 0
KGHS 191905Z 18014G20KT 23/02 A2989 RMK A01 T02330017  RH  024%=      5-min Rain = 0
KGHS 191910Z 18018G24KT 24/02 A2989 RMK A01 T02350016  RH  024%=      5-min Rain = 0
KGHS 191915Z 18016G23KT 23/01 A2989 RMK A01 T02340014  RH  024%=      5-min Rain = 0
KGHS 191920Z 18015G21KT 24/02 A2989 RMK A01 T02370015  RH  024%=      5-min Rain = 0
KGHS 191925Z 19018G24KT 24/01 A2988 RMK A01 T02350009  RH  023%=      5-min Rain = 0
KGHS 191930Z 18017G23KT 24/01 A2988 RMK A01 T02350009  RH  023%=      5-min Rain = 0
KGHS 191935Z 19017G25KT 24/01 A2988 RMK A01 T02360012  RH  023%=      5-min Rain = 0
KGHS 191940Z 19014G20KT 24/02 A2987 RMK A01 T02380015  RH  023%=      5-min Rain = 0
KGHS 191945Z 19015G23KT 24/02 A2987 RMK A01 T02400016  RH  023%=      5-min Rain = 0
KGHS 191950Z 18016G23KT 24/02 A2987 RMK A01 T02390018  RH  024%=      5-min Rain = 0
KGHS 191955Z 18018G27KT 24/01 A2987 RMK A01 T02390014  RH  023%=      5-min Rain = 0
KGHS 192000Z 18017G22KT 24/01 A2986 RMK A01 T02380012  RH  023%=      5-min Rain = 0
KGHS 192005Z 18013G18KT 24/01 A2987 RMK A01 T02420014  RH  023%=      5-min Rain = 0
KGHS 192010Z 18014G19KT 24/02 A2986 RMK A01 T02440015  RH  023%=      5-min Rain = 0
KGHS 192015Z 19013G19KT 24/02 A2986 RMK A01 T02440015  RH  023%=      5-min Rain = 0
KGHS 192020Z 19013G19KT 24/02 A2986 RMK A01 T02440015  RH  023%=      5-min Rain = 0
KGHS 192025Z 19013G20KT 25/02 A2985 RMK A01 T02450015  RH  022%=      5-min Rain = 0
KGHS 192030Z 18010G15KT 25/02 A2986 RMK A01 T02480016  RH  022%=      5-min Rain = 0
KGHS 192035Z 19012G19KT 25/01 A2985 RMK A01 T02490014  RH  022%=      5-min Rain = 0
KGHS 192040Z 19014G19KT 25/01 A2985 RMK A01 T02460014  RH  022%=      5-min Rain = 0
KGHS 192045Z 19012KT 25/02 A2985 RMK A01 T02450016  RH  023%=      5-min Rain = 0
KGHS 192050Z 19013G18KT 25/02 A2985 RMK A01 T02480016  RH  022%=      5-min Rain = 0
KGHS 192055Z 19013G18KT 25/01 A2984 RMK A01 T02460013  RH  022%=      5-min Rain = 0
KGHS 192100Z 20013G19KT 24/01 A2984 RMK A01 T02430014  RH  023%=      5-min Rain = 0
KGHS 192105Z 18012KT 24/02 A2984 RMK A01 T02430015  RH  023%=      5-min Rain = 0
KGHS 192110Z 18009KT 24/02 A2984 RMK A01 T02420016  RH  023%=      5-min Rain = 0
KGHS 192115Z 18014KT 24/01 A2984 RMK A01 T02440013  RH  022%=      5-min Rain = 0
KGHS 192120Z 19015KT 25/01 A2984 RMK A01 T02450008  RH  021%=      5-min Rain = 0
KGHS 192125Z 20014G19KT 25/01 A2984 RMK A01 T02480006  RH  021%=      5-min Rain = 0
KGHS 192130Z 19012G19KT 25/00 A2983 RMK A01 T02500003  RH  020%=      5-min Rain = 0
KGHS 192135Z 19010G18KT 25/01 A2983 RMK A01 T02530008  RH  020%=      5-min Rain = 0
KGHS 192140Z 19014KT 25/00 A2983 RMK A01 T02500004  RH  020%=      5-min Rain = 0
KGHS 192145Z 19013KT 25/01 A2983 RMK A01 T02450006  RH  021%=      5-min Rain = 0
KGHS 192150Z 18016KT 25/01 A2983 RMK A01 T02450006  RH  021%=      5-min Rain = 0
KGHS 192155Z 18014G19KT 25/01 A2983 RMK A01 T02450006  RH  021%=      5-min Rain = 0
KGHS 192200Z 19014G19KT 24/00 A2983 RMK A01 T02440004  RH  021%=      5-min Rain = 0
KGHS 192205Z 18015G20KT 25/00 A2983 RMK A01 T02450004  RH  021%=      5-min Rain = 0
KGHS 192210Z 18011KT 25/01 A2983 RMK A01 T02450008  RH  021%=      5-min Rain = 0
KGHS 192215Z 18012G19KT 25/01 A2983 RMK A01 T02450009  RH  021%=      5-min Rain = 0
KGHS 192220Z 17011G18KT 24/01 A2983 RMK A01 T02430011  RH  022%=      5-min Rain = 0
KGHS 192225Z 17013G19KT 24/01 A2982 RMK A01 T02410011  RH  022%=      5-min Rain = 0
KGHS 192230Z 18015G20KT 24/01 A2982 RMK A01 T02390008  RH  022%=      5-min Rain = 0
KGHS 192235Z 17013KT 24/01 A2982 RMK A01 T02370010  RH  023%=      5-min Rain = 0
KGHS 192240Z 17013G18KT 24/01 A2982 RMK A01 T02360014  RH  024%=      5-min Rain = 0
KGHS 192245Z 17013KT 23/02 A2982 RMK A01 T02340015  RH  024%=      5-min Rain = 0
KGHS 192250Z 17013KT 23/02 A2982 RMK A01 T02330016  RH  024%=      5-min Rain = 0
KGHS 192255Z 17013KT 23/02 A2982 RMK A01 T02320017  RH  025%=      5-min Rain = 0
KGHS 192300Z 17012KT 23/02 A2982 RMK A01 T02310018  RH  025%=      5-min Rain = 0
KGHS 192305Z 17012G17KT 23/02 A2982 RMK A01 T02320019  RH  025%=      5-min Rain = 0
KGHS 192310Z 17011KT 23/02 A2982 RMK A01 T02320020  RH  025%=      5-min Rain = 0
KGHS 192315Z 17009KT 23/02 A2982 RMK A01 T02300022  RH  026%=      5-min Rain = 0
KGHS 192320Z 17010KT 23/02 A2983 RMK A01 T02270023  RH  027%=      5-min Rain = 0
KGHS 192325Z 17010KT 22/02 A2982 RMK A01 T02240023  RH  027%=      5-min Rain = 0
KGHS 192330Z 17010KT 22/02 A2982 RMK A01 T02210022  RH  027%=      5-min Rain = 0
KGHS 192335Z 17009KT 22/02 A2982 RMK A01 T02200021  RH  027%=      5-min Rain = 0
KGHS 192340Z 17008KT 22/02 A2982 RMK A01 T02170021  RH  028%=      5-min Rain = 0
KGHS 192345Z 17008KT 22/02 A2982 RMK A01 T02150021  RH  028%=      5-min Rain = 0
KGHS 192350Z 17008KT 21/02 A2982 RMK A01 T02140019  RH  028%=      5-min Rain = 0
KGHS 192355Z 17009KT 21/02 A2982 RMK A01 T02140018  RH  028%=      5-min Rain = 0
KGHS 200000Z 17008KT 21/02 A2983 RMK A01 T02140018  RH  028%=      5-min Rain = 0
KGHS 200005Z 17009KT 21/02 A2983 RMK A01 T02120019  RH  028%=      5-min Rain = 0
KGHS 200010Z 17009KT 21/02 A2983 RMK A01 T02110019  RH  028%=      5-min Rain = 0
KGHS 200015Z 16009KT 21/02 A2982 RMK A01 T02070020  RH  029%=      5-min Rain = 0
KGHS 200020Z 16009KT 20/02 A2982 RMK A01 T02040020  RH  030%=      5-min Rain = 0
KGHS 200025Z 16009KT 20/02 A2982 RMK A01 T02010021  RH  031%=      5-min Rain = 0
KGHS 200030Z 16009KT 20/02 A2982 RMK A01 T01990021  RH  031%=      5-min Rain = 0
KGHS 200035Z 15008KT 20/02 A2982 RMK A01 T01960021  RH  032%=      5-min Rain = 0
KGHS 200040Z 16008KT 20/02 A2982 RMK A01 T01950020  RH  032%=      5-min Rain = 0
KGHS 200045Z 16008KT 20/02 A2982 RMK A01 T01950020  RH  032%=      5-min Rain = 0
KGHS 200050Z 15006KT 19/02 A2982 RMK A01 T01940019  RH  032%=      5-min Rain = 0
KGHS 200055Z 14007KT 19/02 A2982 RMK A01 T01920020  RH  032%=      5-min Rain = 0
KGHS 200100Z 15007KT 19/02 A2982 RMK A01 T01910020  RH  032%=      5-min Rain = 0
KGHS 200105Z 16008KT 19/02 A2983 RMK A01 T01890020  RH  033%=      5-min Rain = 0
KGHS 200110Z 16008KT 19/02 A2983 RMK A01 T01900019  RH  032%=      5-min Rain = 0
KGHS 200115Z 16010KT 19/02 A2983 RMK A01 T01900020  RH  032%=      5-min Rain = 0
KGHS 200120Z 16010KT 19/02 A2983 RMK A01 T01890020  RH  033%=      5-min Rain = 0
KGHS 200125Z 16009KT 19/02 A2983 RMK A01 T01880020  RH  033%=      5-min Rain = 0
KGHS 200130Z 17010G15KT 19/02 A2983 RMK A01 T01880020  RH  033%=      5-min Rain = 0
KGHS 200135Z 17012KT 19/02 A2983 RMK A01 T01900018  RH  032%=      5-min Rain = 0
KGHS 200140Z 18013G21KT 20/02 A2983 RMK A01 T01950018  RH  031%=      5-min Rain = 0
KGHS 200145Z 18013G18KT 20/02 A2983 RMK A01 T02000019  RH  030%=      5-min Rain = 0
KGHS 200150Z 18014G19KT 20/02 A2983 RMK A01 T02010020  RH  031%=      5-min Rain = 0
KGHS 200155Z 18014G19KT 20/02 A2983 RMK A01 T02020022  RH  031%=      5-min Rain = 0
KGHS 200200Z 17015G22KT 20/02 A2983 RMK A01 T02020024  RH  031%=      5-min Rain = 0
KGHS 200205Z 18013G20KT 20/03 A2983 RMK A01 T02010025  RH  032%=      5-min Rain = 0
KGHS 200210Z 17016KT 20/03 A2983 RMK A01 T02020027  RH  032%=      5-min Rain = 0
KGHS 200215Z 18016G24KT 20/03 A2983 RMK A01 T02010027  RH  032%=      5-min Rain = 0
KGHS 200220Z 18016G21KT 20/03 A2983 RMK A01 T01980028  RH  033%=      5-min Rain = 0
KGHS 200225Z 18016G21KT 20/03 A2984 RMK A01 T01980030  RH  033%=      5-min Rain = 0
KGHS 200230Z 18015G20KT 20/03 A2984 RMK A01 T01960031  RH  034%=      5-min Rain = 0
KGHS 200235Z 18014G19KT 20/03 A2984 RMK A01 T01950031  RH  034%=      5-min Rain = 0
KGHS 200240Z 18013G19KT 19/03 A2984 RMK A01 T01920032  RH  035%=      5-min Rain = 0
KGHS 200245Z 18015G22KT 19/03 A2984 RMK A01 T01910034  RH  036%=      5-min Rain = 0
KGHS 200250Z 18013G19KT 19/04 A2983 RMK A01 T01910036  RH  037%=      5-min Rain = 0
KGHS 200255Z 18015G22KT 19/04 A2983 RMK A01 T01890039  RH  038%=      5-min Rain = 0
KGHS 200300Z 18017G24KT 19/04 A2983 RMK A01 T01900042  RH  038%=      5-min Rain = 0
KGHS 200305Z 18019G25KT 19/04 A2983 RMK A01 T01920044  RH  039%=      5-min Rain = 0
KGHS 200310Z 18018G28KT 19/05 A2983 RMK A01 T01900045  RH  039%=      5-min Rain = 0
KGHS 200315Z 18018G27KT 19/05 A2983 RMK A01 T01890046  RH  040%=      5-min Rain = 0
KGHS 200320Z 17019G26KT 19/05 A2983 RMK A01 T01870049  RH  041%=      5-min Rain = 0
KGHS 200325Z 18018G24KT 19/05 A2983 RMK A01 T01870051  RH  042%=      5-min Rain = 0
KGHS 200330Z 18018G25KT 18/05 A2983 RMK A01 T01840053  RH  043%=      5-min Rain = 0
KGHS 200335Z 18017G23KT 18/06 A2984 RMK A01 T01830057  RH  044%=      5-min Rain = 0
KGHS 200340Z 18018G23KT 18/06 A2984 RMK A01 T01840060  RH  045%=      5-min Rain = 0
KGHS 200345Z 18018G24KT 18/06 A2983 RMK A01 T01830063  RH  046%=      5-min Rain = 0
KGHS 200350Z 18017G24KT 18/07 A2984 RMK A01 T01830065  RH  047%=      5-min Rain = 0
KGHS 200355Z 18016G23KT 18/07 A2984 RMK A01 T01820066  RH  048%=      5-min Rain = 0
KGHS 200400Z 18018G28KT 18/07 A2983 RMK A01 T01820068  RH  049%=      5-min Rain = 0
KGHS 200405Z 18020G26KT 18/07 A2983 RMK A01 T01820070  RH  049%=      5-min Rain = 0
KGHS 200410Z 18018G23KT 18/07 A2983 RMK A01 T01810071  RH  050%=      5-min Rain = 0
KGHS 200415Z 18021G28KT 18/07 A2983 RMK A01 T01800072  RH  050%=      5-min Rain = 0
KGHS 200420Z 18020G28KT 18/07 A2983 RMK A01 T01800073  RH  051%=      5-min Rain = 0
KGHS 200425Z 18018G24KT 18/07 A2983 RMK A01 T01780073  RH  052%=      5-min Rain = 0
KGHS 200430Z 18018G26KT 18/07 A2983 RMK A01 T01760074  RH  053%=      5-min Rain = 0
KGHS 200435Z 18016G21KT 18/08 A2984 RMK A01 T01750075  RH  053%=      5-min Rain = 0
KGHS 200440Z 18017G23KT 17/08 A2983 RMK A01 T01740076  RH  054%=      5-min Rain = 0
KGHS 200445Z 18016G24KT 17/08 A2984 RMK A01 T01730077  RH  055%=      5-min Rain = 0
KGHS 200450Z 18017G22KT 17/08 A2984 RMK A01 T01720079  RH  056%=      5-min Rain = 0
KGHS 200455Z 19018G24KT 17/08 A2984 RMK A01 T01730080  RH  056%=      5-min Rain = 0
KGHS 200500Z 19017G27KT 17/08 A2984 RMK A01 T01720082  RH  057%=      5-min Rain = 0
KGHS 200505Z 19018G25KT 17/08 A2984 RMK A01 T01720082  RH  057%=      5-min Rain = 0
KGHS 200510Z 19016G21KT 17/08 A2984 RMK A01 T01700083  RH  058%=      5-min Rain = 0
KGHS 200515Z 18016G25KT 17/08 A2984 RMK A01 T01690083  RH  059%=      5-min Rain = 0
KGHS 200520Z 19016KT 17/08 A2984 RMK A01 T01680084  RH  059%=      5-min Rain = 0
KGHS 200525Z 19017G26KT 17/08 A2984 RMK A01 T01670084  RH  060%=      5-min Rain = 0
KGHS 200530Z 18017G24KT 17/09 A2983 RMK A01 T01680085  RH  060%=      5-min Rain = 0
KGHS 200535Z 19017G25KT 17/09 A2984 RMK A01 T01670086  RH  060%=      5-min Rain = 0
KGHS 200540Z 19019G27KT 17/09 A2984 RMK A01 T01670087  RH  061%=      5-min Rain = 0
KGHS 200545Z 19018KT 17/09 A2984 RMK A01 T01670087  RH  061%=      5-min Rain = 0
KGHS 200550Z 19017G22KT 17/09 A2984 RMK A01 T01660088  RH  062%=      5-min Rain = 0
KGHS 200555Z 19018KT 17/09 A2984 RMK A01 T01660089  RH  062%=      5-min Rain = 0

Page generated in 0.0091 seconds.